Terminal Aerodrome Forecast
Issued by NWS

Home | Current Version | Previous Version | Text Only | Print | Product List | Glossary On
Versions: 1 2 3 4 5 6 7 8 9 10 11 12 13 14 15 16 17 18 19 20 21
000
FTAK31 PANC 251538 AAC
TAFAAQ
TAF AMD
PAAQ 251538Z 2516/2612 00000KT P6SM OVC015
      TEMPO 2516/2519 4SM BR BKN004
     FM252000 00000KT P6SM FEW008 SCT035 BKN050=

USA.gov is the U.S. government's official web portal to all federal, state and local government web resources and services.